Terminal Aerodrome Forecast
Issued by NWS

Home | Current Version | Previous Version | Text Only | Print | Product List | Glossary On
Versions: 1 2 3 4 5 6 7 8 9 10 11 12 13 14 15
314
FTUS46 KMFR 262341
TAFRBG
TAF
KRBG 262341Z 2700/2724 16007KT P6SM -RA OVC040
     FM271200 16005KT P6SM -RA BKN025 OVC040
     FM271700 17007KT P6SM -SHRA SCT030 OVC040=

USA.gov is the U.S. government's official web portal to all federal, state and local government web resources and services.